Linfield, Pennsylvania
Current Conditions -  °F | °C
As of 4:54 PM on Monday 24 Nov 2014 (Local Time) from KPTW Reporting Station
Clear Clear  
Wind Chill: 66°   Ceiling: Unl
Heat Index: 66°   Visibility: 10mi
Dew Point: 54°   Wind: 10mph
Humidity: 65%   Direction: 200°SSW
Pressure: 29.65"   Gusts: 18mph
Location:  40.2034°N, 75.5319°W
Report Text: KPTW 242154Z AUTO 20009G16KT 10SM CLR 19/12 A2965 RMK AO2 SLP038 T01890122
Loading
Personal Weather Stations






























Interactive Weather Map New forecast layout! Learn more

10-Day Weather Forecast

Advertisements
Track Severe Weather on mobile